This is the latest recevied weather packets stored in our database for station/object KC1OEK-13. If no packets are shown the sender has not sent any weather packets the latest 10 day(s).
| Time | Temp. | Humidity | Pressure | Rain* | Wind** | Luminosity | Snow |
|---|---|---|---|---|---|---|---|
| 1777625194 | 3.33° C | 88% | 1012.3 hPa | 0 mm | - | 0 W/m² | - |
| 1777624891 | 3.33° C | 88% | 1012.3 hPa | 0 mm | - | 0 W/m² | - |
| 1777624587 | 3.89° C | 87% | 1012.1 hPa | 0 mm | - | 0 W/m² | - |
| 1777624287 | 3.89° C | 86% | 1011.9 hPa | 0 mm | - | 0 W/m² | - |
| 1777623986 | 3.89° C | 85% | 1012.2 hPa | 0 mm | - | 0 W/m² | - |
| 1777623682 | 4.44° C | 84% | 1012.2 hPa | 0 mm | - | 0 W/m² | - |
| 1777623380 | 4.44° C | 83% | 1012.2 hPa | 0 mm | - | 0 W/m² | - |
| 1777623076 | 4.44° C | 83% | 1012.1 hPa | 0 mm | - | 0 W/m² | - |
| 1777622774 | 5° C | 83% | 1012 hPa | 0 mm | - | 0 W/m² | - |
| 1777622470 | 5° C | 82% | 1012 hPa | 0 mm | - | 0 W/m² | - |
| 1777622166 | 5° C | 80% | 1011.8 hPa | 0 mm | - | 0 W/m² | - |
| 1777621862 | 5° C | 81% | 1011.8 hPa | 0 mm | - | 0 W/m² | - |
| 1777621558 | 5.56° C | 80% | 1011.9 hPa | 0 mm | - | 0 W/m² | - |
| 1777621255 | 5° C | 83% | 1011.6 hPa | 0 mm | - | 0 W/m² | - |
| 1777620951 | 5° C | 83% | 1011.7 hPa | 0 mm | - | 0 W/m² | - |
| 1777620647 | 5.56° C | 80% | 1011.7 hPa | 0 mm | - | 0 W/m² | - |
| 1777620343 | 5.56° C | 80% | 1011.5 hPa | 0 mm | - | 0 W/m² | - |
| 1777620040 | 5.56° C | 82% | 1011.4 hPa | 0 mm | - | 0 W/m² | - |
| 1777619737 | 5.56° C | 81% | 1011.5 hPa | 0 mm | - | 0 W/m² | - |
| 1777619431 | 5.56° C | 80% | 1011.5 hPa | 0 mm | - | 0 W/m² | - |
| 1777619126 | 5.56° C | 81% | 1011.6 hPa | 0 mm | - | 0 W/m² | - |
| 1777618821 | 5.56° C | 79% | 1011.7 hPa | 0 mm | - | 0 W/m² | - |
| 1777618515 | 6.11° C | 78% | 1011.5 hPa | 0 mm | - | 0 W/m² | - |
| 1777618212 | 5.56° C | 79% | 1011.5 hPa | 0 mm | - | 0 W/m² | - |
| 1777617909 | 5° C | 84% | 1011.7 hPa | 0 mm | - | 0 W/m² | - |
* Rain latest hour (hover to see other rain measurements)
** Current wind speed in m/s (hover to see current wind gust speed)